Galway, Ireland

7:03 AM IST on July 01, 2015 (GMT +0100)
Marine Institute | | Change Station
CLOSE
Current Station
Personal Weather Station
Location: Rinville, Galway
Elevation: 59 ft
Nearby Weather Stations

Elev 59 ft 53.25 °N, 8.98 °W | Updated 3 minutes ago

Overcast
Overcast
59.9 °F
Feels Like 59.9 °F
N
2.0
Wind Variable Wind from ESE
Gusts 3.0 mph

Today
High -- | Low -- °F
--% Chance of Precip.
Yesterday
High -- | Low -- °F
Precip. -- in
5:12 AM 10:06 PM
Waxing Gibbous, 99% visible
Pressure 29.80 in
Visibility 6.2 miles
Clouds Mostly Cloudy 800 ft
Overcast 2100 ft
Dew Point 52 °F
Humidity 74%
Rainfall 0.00 in
Snow Depth Not available.
UV 0 out of 12
Pollen Not available.
Air Quality Not available.
Flu Activity Not available.
METAR EINN 010600Z 32003KT 9999 BKN008 OVC021 15/14 Q1009 TEMPO 3000 BKN006

More Conditions Fewer Conditions

Pressure 29.80 in
Visibility 6.2 miles
Clouds Mostly Cloudy 800 ft
Overcast 2100 ft
Dew Point 52 °F
Humidity 74%
Rainfall 0.00 in
Snow Depth Not available.
UV 0 out of 12
Pollen Not available.
Air Quality Not available.
Flu Activity Not available.
METAR EINN 010600Z 32003KT 9999 BKN008 OVC021 15/14 Q1009 TEMPO 3000 BKN006

More Conditions Fewer Conditions

10-Day Weather Forecast

×

Almanac

Astronomy

Jul. 01, 2015 Rise Set
Actual Time
Civil Twilight
Nautical Twilight
Astronomical Twilight
Moon
Length of Visible Light
Length of Day
Tomorrow will be .
, % of the Moon is Illuminated

Today's Extremes

Country Highs Country Lows

Community

WunderPhotos

Upload Photos

1,834,156 photos uploaded!

WunderBlogs® & News

Nearby

Air Quality

  Air Quality AQ Index Pollutant
Not available.

Snow Depth

Station Depth Elevation

Earthquake Activity

City Distance Mag. Time & Date
Minimum magnitude displayed is 2.5.

Coastal Water Temperatures

Place Temperature

Stations

Nearby Weather Stations

Station Location Temp. Windchill Dew Point Humidity Wind Precip. Elev Updated Type